sensor_id;sensor_type;location;lat;lon;timestamp;P1;durP1;ratioP1;P2;durP2;ratioP2
59974;SDS011;62136;-35.664;-63.766;2024-02-26T00:01:10;2.42;;;1.35;;
59974;SDS011;62136;-35.664;-63.766;2024-02-26T00:03:37;2.03;;;1.40;;
59974;SDS011;62136;-35.664;-63.766;2024-02-26T00:06:07;1.98;;;1.30;;
59974;SDS011;62136;-35.664;-63.766;2024-02-26T00:08:34;2.13;;;1.35;;
59974;SDS011;62136;-35.664;-63.766;2024-02-26T00:11:01;3.20;;;1.40;;
59974;SDS011;62136;-35.664;-63.766;2024-02-26T00:13:28;2.53;;;1.52;;
59974;SDS011;62136;-35.664;-63.766;2024-02-26T00:15:55;2.35;;;1.13;;
59974;SDS011;62136;-35.664;-63.766;2024-02-26T00:18:22;2.55;;;1.30;;
59974;SDS011;62136;-35.664;-63.766;2024-02-26T00:23:57;2.90;;;1.30;;
59974;SDS011;62136;-35.664;-63.766;2024-02-26T00:26:27;2.15;;;1.40;;
59974;SDS011;62136;-35.664;-63.766;2024-02-26T00:28:54;2.63;;;1.60;;
59974;SDS011;62136;-35.664;-63.766;2024-02-26T00:31:21;3.13;;;1.35;;
59974;SDS011;62136;-35.664;-63.766;2024-02-26T00:33:48;2.38;;;1.35;;
59974;SDS011;62136;-35.664;-63.766;2024-02-26T00:36:15;2.10;;;1.20;;
59974;SDS011;62136;-35.664;-63.766;2024-02-26T00:38:43;2.15;;;1.25;;
59974;SDS011;62136;-35.664;-63.766;2024-02-26T00:41:16;2.20;;;1.30;;
59974;SDS011;62136;-35.664;-63.766;2024-02-26T00:43:44;2.30;;;1.63;;
59974;SDS011;62136;-35.664;-63.766;2024-02-26T00:46:13;2.53;;;1.30;;
59974;SDS011;62136;-35.664;-63.766;2024-02-26T00:48:40;2.40;;;1.30;;
59974;SDS011;62136;-35.664;-63.766;2024-02-26T00:51:11;2.40;;;1.45;;
59974;SDS011;62136;-35.664;-63.766;2024-02-26T00:53:39;2.65;;;1.20;;
59974;SDS011;62136;-35.664;-63.766;2024-02-26T00:56:06;2.80;;;1.58;;
59974;SDS011;62136;-35.664;-63.766;2024-02-26T01:04:07;1.73;;;1.17;;
59974;SDS011;62136;-35.664;-63.766;2024-02-26T01:06:34;2.05;;;1.70;;
59974;SDS011;62136;-35.664;-63.766;2024-02-26T01:09:01;2.08;;;1.17;;
59974;SDS011;62136;-35.664;-63.766;2024-02-26T01:11:29;2.47;;;1.50;;
59974;SDS011;62136;-35.664;-63.766;2024-02-26T01:13:56;1.90;;;1.50;;
59974;SDS011;62136;-35.664;-63.766;2024-02-26T01:16:25;2.83;;;1.58;;
59974;SDS011;62136;-35.664;-63.766;2024-02-26T01:18:54;1.75;;;1.30;;
59974;SDS011;62136;-35.664;-63.766;2024-02-26T01:21:21;2.47;;;1.30;;
59974;SDS011;62136;-35.664;-63.766;2024-02-26T01:23:48;2.17;;;1.27;;
59974;SDS011;62136;-35.664;-63.766;2024-02-26T01:26:15;2.47;;;1.20;;
59974;SDS011;62136;-35.664;-63.766;2024-02-26T01:28:42;2.58;;;1.45;;
59974;SDS011;62136;-35.664;-63.766;2024-02-26T01:31:09;2.38;;;1.20;;
59974;SDS011;62136;-35.664;-63.766;2024-02-26T01:33:36;1.92;;;1.20;;
59974;SDS011;62136;-35.664;-63.766;2024-02-26T01:36:03;1.95;;;1.30;;
59974;SDS011;62136;-35.664;-63.766;2024-02-26T01:38:30;1.35;;;1.17;;
59974;SDS011;62136;-35.664;-63.766;2024-02-26T01:40:57;1.80;;;1.27;;
59974;SDS011;62136;-35.664;-63.766;2024-02-26T01:43:25;1.38;;;1.27;;
59974;SDS011;62136;-35.664;-63.766;2024-02-26T01:45:52;2.70;;;1.35;;
59974;SDS011;62136;-35.664;-63.766;2024-02-26T01:48:20;2.83;;;1.50;;
59974;SDS011;62136;-35.664;-63.766;2024-02-26T01:50:49;3.00;;;1.52;;
59974;SDS011;62136;-35.664;-63.766;2024-02-26T01:53:16;1.95;;;1.30;;
59974;SDS011;62136;-35.664;-63.766;2024-02-26T01:55:44;2.30;;;1.15;;
59974;SDS011;62136;-35.664;-63.766;2024-02-26T01:58:12;1.52;;;1.10;;
59974;SDS011;62136;-35.664;-63.766;2024-02-26T02:00:40;2.03;;;1.20;;
59974;SDS011;62136;-35.664;-63.766;2024-02-26T02:05:33;2.70;;;1.48;;
59974;SDS011;62136;-35.664;-63.766;2024-02-26T02:08:07;1.70;;;1.17;;
59974;SDS011;62136;-35.664;-63.766;2024-02-26T02:10:38;2.28;;;1.20;;
59974;SDS011;62136;-35.664;-63.766;2024-02-26T02:13:06;2.00;;;1.30;;
59974;SDS011;62136;-35.664;-63.766;2024-02-26T02:15:34;2.95;;;1.35;;
59974;SDS011;62136;-35.664;-63.766;2024-02-26T02:18:01;2.13;;;1.40;;
59974;SDS011;62136;-35.664;-63.766;2024-02-26T02:20:32;3.60;;;1.30;;
59974;SDS011;62136;-35.664;-63.766;2024-02-26T02:23:00;2.70;;;1.25;;
59974;SDS011;62136;-35.664;-63.766;2024-02-26T02:25:30;3.08;;;1.65;;
59974;SDS011;62136;-35.664;-63.766;2024-02-26T02:27:57;2.08;;;1.42;;
59974;SDS011;62136;-35.664;-63.766;2024-02-26T02:30:25;1.80;;;1.40;;
59974;SDS011;62136;-35.664;-63.766;2024-02-26T02:32:55;1.40;;;1.20;;
59974;SDS011;62136;-35.664;-63.766;2024-02-26T02:35:24;2.42;;;1.17;;
59974;SDS011;62136;-35.664;-63.766;2024-02-26T02:37:55;1.85;;;1.48;;
59974;SDS011;62136;-35.664;-63.766;2024-02-26T02:40:24;3.03;;;1.50;;
59974;SDS011;62136;-35.664;-63.766;2024-02-26T02:42:51;1.67;;;1.30;;
59974;SDS011;62136;-35.664;-63.766;2024-02-26T02:45:18;3.42;;;1.52;;
59974;SDS011;62136;-35.664;-63.766;2024-02-26T02:47:45;2.13;;;1.40;;
59974;SDS011;62136;-35.664;-63.766;2024-02-26T02:50:12;2.03;;;1.20;;
59974;SDS011;62136;-35.664;-63.766;2024-02-26T02:52:39;3.03;;;1.42;;
59974;SDS011;62136;-35.664;-63.766;2024-02-26T02:55:06;1.77;;;1.10;;
59974;SDS011;62136;-35.664;-63.766;2024-02-26T02:57:33;2.00;;;1.13;;
59974;SDS011;62136;-35.664;-63.766;2024-02-26T03:00:07;2.35;;;1.20;;
59974;SDS011;62136;-35.664;-63.766;2024-02-26T03:02:34;2.75;;;1.20;;
59974;SDS011;62136;-35.664;-63.766;2024-02-26T03:05:05;1.63;;;1.08;;
59974;SDS011;62136;-35.664;-63.766;2024-02-26T03:07:32;1.73;;;1.10;;
59974;SDS011;62136;-35.664;-63.766;2024-02-26T03:09:59;1.77;;;1.30;;
59974;SDS011;62136;-35.664;-63.766;2024-02-26T03:12:26;1.50;;;1.10;;
59974;SDS011;62136;-35.664;-63.766;2024-02-26T03:14:53;2.75;;;1.20;;
59974;SDS011;62136;-35.664;-63.766;2024-02-26T03:17:20;1.52;;;1.38;;
59974;SDS011;62136;-35.664;-63.766;2024-02-26T03:19:49;2.95;;;1.40;;
59974;SDS011;62136;-35.664;-63.766;2024-02-26T03:22:19;1.85;;;1.33;;
59974;SDS011;62136;-35.664;-63.766;2024-02-26T03:24:46;1.25;;;1.08;;
59974;SDS011;62136;-35.664;-63.766;2024-02-26T03:27:14;2.95;;;1.13;;
59974;SDS011;62136;-35.664;-63.766;2024-02-26T03:29:42;2.10;;;1.60;;
59974;SDS011;62136;-35.664;-63.766;2024-02-26T03:32:09;1.50;;;1.10;;
59974;SDS011;62136;-35.664;-63.766;2024-02-26T03:34:36;1.75;;;1.30;;
59974;SDS011;62136;-35.664;-63.766;2024-02-26T03:37:05;1.90;;;1.30;;
59974;SDS011;62136;-35.664;-63.766;2024-02-26T03:39:34;2.08;;;1.20;;
59974;SDS011;62136;-35.664;-63.766;2024-02-26T03:42:01;2.58;;;1.20;;
59974;SDS011;62136;-35.664;-63.766;2024-02-26T03:44:29;2.42;;;1.33;;
59974;SDS011;62136;-35.664;-63.766;2024-02-26T03:46:56;2.75;;;1.15;;
59974;SDS011;62136;-35.664;-63.766;2024-02-26T03:49:22;2.10;;;1.25;;
59974;SDS011;62136;-35.664;-63.766;2024-02-26T03:51:49;2.00;;;1.48;;
59974;SDS011;62136;-35.664;-63.766;2024-02-26T03:54:16;1.42;;;1.23;;
59974;SDS011;62136;-35.664;-63.766;2024-02-26T03:56:44;2.13;;;1.10;;
59974;SDS011;62136;-35.664;-63.766;2024-02-26T03:59:26;2.00;;;1.33;;
59974;SDS011;62136;-35.664;-63.766;2024-02-26T04:01:56;1.70;;;1.35;;
59974;SDS011;62136;-35.664;-63.766;2024-02-26T04:04:23;2.03;;;1.30;;
59974;SDS011;62136;-35.664;-63.766;2024-02-26T04:06:50;1.55;;;1.20;;
59974;SDS011;62136;-35.664;-63.766;2024-02-26T04:09:17;1.90;;;1.30;;
59974;SDS011;62136;-35.664;-63.766;2024-02-26T04:11:44;1.90;;;1.35;;
59974;SDS011;62136;-35.664;-63.766;2024-02-26T04:14:11;2.05;;;1.30;;
59974;SDS011;62136;-35.664;-63.766;2024-02-26T04:16:38;1.73;;;1.20;;
59974;SDS011;62136;-35.664;-63.766;2024-02-26T04:19:05;2.00;;;1.20;;
59974;SDS011;62136;-35.664;-63.766;2024-02-26T04:21:32;2.30;;;1.20;;
59974;SDS011;62136;-35.664;-63.766;2024-02-26T04:24:00;2.03;;;1.20;;
59974;SDS011;62136;-35.664;-63.766;2024-02-26T04:26:27;2.20;;;1.48;;
59974;SDS011;62136;-35.664;-63.766;2024-02-26T04:28:56;2.67;;;1.70;;
59974;SDS011;62136;-35.664;-63.766;2024-02-26T04:31:23;1.85;;;1.25;;
59974;SDS011;62136;-35.664;-63.766;2024-02-26T04:33:50;1.63;;;1.10;;
59974;SDS011;62136;-35.664;-63.766;2024-02-26T04:36:17;3.20;;;1.10;;
59974;SDS011;62136;-35.664;-63.766;2024-02-26T04:38:44;1.95;;;1.20;;
59974;SDS011;62136;-35.664;-63.766;2024-02-26T04:41:11;3.42;;;1.55;;
59974;SDS011;62136;-35.664;-63.766;2024-02-26T04:43:38;3.08;;;1.20;;
59974;SDS011;62136;-35.664;-63.766;2024-02-26T04:46:07;2.60;;;1.30;;
59974;SDS011;62136;-35.664;-63.766;2024-02-26T04:48:35;2.08;;;1.33;;
59974;SDS011;62136;-35.664;-63.766;2024-02-26T04:51:04;1.30;;;1.20;;
59974;SDS011;62136;-35.664;-63.766;2024-02-26T04:53:31;1.90;;;1.27;;
59974;SDS011;62136;-35.664;-63.766;2024-02-26T04:55:58;2.03;;;1.23;;
59974;SDS011;62136;-35.664;-63.766;2024-02-26T04:58:25;2.15;;;1.10;;
59974;SDS011;62136;-35.664;-63.766;2024-02-26T05:00:51;1.95;;;1.30;;
59974;SDS011;62136;-35.664;-63.766;2024-02-26T05:03:18;2.38;;;1.35;;
59974;SDS011;62136;-35.664;-63.766;2024-02-26T05:05:45;2.42;;;1.20;;
59974;SDS011;62136;-35.664;-63.766;2024-02-26T05:08:12;1.70;;;1.40;;
59974;SDS011;62136;-35.664;-63.766;2024-02-26T05:10:39;2.67;;;1.30;;
59974;SDS011;62136;-35.664;-63.766;2024-02-26T05:13:08;2.78;;;1.50;;
59974;SDS011;62136;-35.664;-63.766;2024-02-26T05:15:36;3.17;;;1.25;;
59974;SDS011;62136;-35.664;-63.766;2024-02-26T05:18:03;1.98;;;1.20;;
59974;SDS011;62136;-35.664;-63.766;2024-02-26T05:20:30;2.90;;;1.27;;
59974;SDS011;62136;-35.664;-63.766;2024-02-26T05:23:00;2.65;;;1.27;;
59974;SDS011;62136;-35.664;-63.766;2024-02-26T05:25:29;2.58;;;1.25;;
59974;SDS011;62136;-35.664;-63.766;2024-02-26T05:27:56;2.38;;;1.52;;
59974;SDS011;62136;-35.664;-63.766;2024-02-26T05:30:23;2.00;;;1.30;;
59974;SDS011;62136;-35.664;-63.766;2024-02-26T05:32:52;1.58;;;1.20;;
59974;SDS011;62136;-35.664;-63.766;2024-02-26T05:35:19;2.97;;;1.08;;
59974;SDS011;62136;-35.664;-63.766;2024-02-26T05:37:46;2.72;;;1.20;;
59974;SDS011;62136;-35.664;-63.766;2024-02-26T05:40:13;3.13;;;1.58;;
59974;SDS011;62136;-35.664;-63.766;2024-02-26T05:42:40;1.88;;;1.10;;
59974;SDS011;62136;-35.664;-63.766;2024-02-26T05:45:09;2.78;;;1.15;;
59974;SDS011;62136;-35.664;-63.766;2024-02-26T05:47:36;2.17;;;1.23;;
59974;SDS011;62136;-35.664;-63.766;2024-02-26T05:50:11;1.83;;;1.30;;
59974;SDS011;62136;-35.664;-63.766;2024-02-26T05:52:38;3.67;;;1.23;;
59974;SDS011;62136;-35.664;-63.766;2024-02-26T05:55:06;1.95;;;1.10;;
59974;SDS011;62136;-35.664;-63.766;2024-02-26T05:57:34;1.88;;;1.40;;
59974;SDS011;62136;-35.664;-63.766;2024-02-26T06:00:01;2.03;;;1.30;;
59974;SDS011;62136;-35.664;-63.766;2024-02-26T06:02:30;2.58;;;1.35;;
59974;SDS011;62136;-35.664;-63.766;2024-02-26T06:04:57;1.48;;;1.10;;
59974;SDS011;62136;-35.664;-63.766;2024-02-26T06:07:24;2.45;;;1.27;;
59974;SDS011;62136;-35.664;-63.766;2024-02-26T06:09:51;1.98;;;1.30;;
59974;SDS011;62136;-35.664;-63.766;2024-02-26T06:12:18;2.80;;;1.25;;
59974;SDS011;62136;-35.664;-63.766;2024-02-26T06:14:45;3.40;;;1.05;;
59974;SDS011;62136;-35.664;-63.766;2024-02-26T06:17:12;2.72;;;1.40;;
59974;SDS011;62136;-35.664;-63.766;2024-02-26T06:19:39;2.75;;;1.42;;
59974;SDS011;62136;-35.664;-63.766;2024-02-26T06:22:06;1.65;;;1.30;;
59974;SDS011;62136;-35.664;-63.766;2024-02-26T06:24:33;1.80;;;1.20;;
59974;SDS011;62136;-35.664;-63.766;2024-02-26T06:27:00;3.05;;;1.38;;
59974;SDS011;62136;-35.664;-63.766;2024-02-26T06:29:27;2.70;;;1.33;;
59974;SDS011;62136;-35.664;-63.766;2024-02-26T06:31:54;2.70;;;1.65;;
59974;SDS011;62136;-35.664;-63.766;2024-02-26T06:34:21;2.05;;;1.25;;
59974;SDS011;62136;-35.664;-63.766;2024-02-26T06:36:48;3.80;;;1.38;;
59974;SDS011;62136;-35.664;-63.766;2024-02-26T06:39:15;3.25;;;1.33;;
59974;SDS011;62136;-35.664;-63.766;2024-02-26T06:41:43;3.50;;;1.45;;
59974;SDS011;62136;-35.664;-63.766;2024-02-26T06:44:13;3.45;;;1.38;;
59974;SDS011;62136;-35.664;-63.766;2024-02-26T06:46:40;3.00;;;1.58;;
59974;SDS011;62136;-35.664;-63.766;2024-02-26T06:49:07;2.97;;;1.30;;
59974;SDS011;62136;-35.664;-63.766;2024-02-26T06:51:34;2.53;;;1.30;;
59974;SDS011;62136;-35.664;-63.766;2024-02-26T06:54:01;2.75;;;1.35;;
59974;SDS011;62136;-35.664;-63.766;2024-02-26T06:56:28;1.92;;;1.30;;
59974;SDS011;62136;-35.664;-63.766;2024-02-26T06:58:55;3.03;;;1.30;;
59974;SDS011;62136;-35.664;-63.766;2024-02-26T07:01:22;2.67;;;1.30;;
59974;SDS011;62136;-35.664;-63.766;2024-02-26T07:03:49;3.47;;;1.50;;
59974;SDS011;62136;-35.664;-63.766;2024-02-26T07:06:16;2.70;;;1.30;;
59974;SDS011;62136;-35.664;-63.766;2024-02-26T07:08:43;2.33;;;1.40;;
59974;SDS011;62136;-35.664;-63.766;2024-02-26T07:11:10;3.15;;;1.25;;
59974;SDS011;62136;-35.664;-63.766;2024-02-26T07:13:37;3.13;;;1.60;;
59974;SDS011;62136;-35.664;-63.766;2024-02-26T07:16:04;3.22;;;1.48;;
59974;SDS011;62136;-35.664;-63.766;2024-02-26T07:18:32;2.03;;;1.30;;
59974;SDS011;62136;-35.664;-63.766;2024-02-26T07:21:01;2.33;;;1.33;;
59974;SDS011;62136;-35.664;-63.766;2024-02-26T07:23:29;2.78;;;1.60;;
59974;SDS011;62136;-35.664;-63.766;2024-02-26T07:25:57;2.35;;;1.35;;
59974;SDS011;62136;-35.664;-63.766;2024-02-26T07:28:24;4.75;;;1.50;;
59974;SDS011;62136;-35.664;-63.766;2024-02-26T07:30:52;3.83;;;1.60;;
59974;SDS011;62136;-35.664;-63.766;2024-02-26T07:33:18;2.70;;;1.48;;
59974;SDS011;62136;-35.664;-63.766;2024-02-26T07:35:45;2.40;;;1.20;;
59974;SDS011;62136;-35.664;-63.766;2024-02-26T07:38:12;2.97;;;1.38;;
59974;SDS011;62136;-35.664;-63.766;2024-02-26T07:40:39;2.63;;;1.60;;
59974;SDS011;62136;-35.664;-63.766;2024-02-26T07:43:06;2.30;;;1.42;;
59974;SDS011;62136;-35.664;-63.766;2024-02-26T07:45:33;2.33;;;1.42;;
59974;SDS011;62136;-35.664;-63.766;2024-02-26T07:48:02;2.42;;;1.67;;
59974;SDS011;62136;-35.664;-63.766;2024-02-26T07:50:29;2.78;;;1.45;;
59974;SDS011;62136;-35.664;-63.766;2024-02-26T07:52:56;2.47;;;1.60;;
59974;SDS011;62136;-35.664;-63.766;2024-02-26T07:55:24;1.95;;;1.30;;
59974;SDS011;62136;-35.664;-63.766;2024-02-26T07:57:51;2.90;;;1.45;;
59974;SDS011;62136;-35.664;-63.766;2024-02-26T08:00:18;2.45;;;1.30;;
59974;SDS011;62136;-35.664;-63.766;2024-02-26T08:02:46;2.53;;;1.40;;
59974;SDS011;62136;-35.664;-63.766;2024-02-26T08:05:13;2.40;;;1.20;;
59974;SDS011;62136;-35.664;-63.766;2024-02-26T08:07:40;3.83;;;1.38;;
59974;SDS011;62136;-35.664;-63.766;2024-02-26T08:10:07;3.50;;;1.52;;
59974;SDS011;62136;-35.664;-63.766;2024-02-26T08:12:34;3.42;;;1.50;;
59974;SDS011;62136;-35.664;-63.766;2024-02-26T08:15:01;1.73;;;1.40;;
59974;SDS011;62136;-35.664;-63.766;2024-02-26T08:17:28;2.17;;;1.42;;
59974;SDS011;62136;-35.664;-63.766;2024-02-26T08:19:55;3.03;;;1.17;;
59974;SDS011;62136;-35.664;-63.766;2024-02-26T08:22:22;1.90;;;1.30;;
59974;SDS011;62136;-35.664;-63.766;2024-02-26T08:24:49;3.13;;;1.55;;
59974;SDS011;62136;-35.664;-63.766;2024-02-26T08:27:16;3.47;;;1.40;;
59974;SDS011;62136;-35.664;-63.766;2024-02-26T08:29:43;2.67;;;1.23;;
59974;SDS011;62136;-35.664;-63.766;2024-02-26T08:32:10;1.70;;;1.33;;
59974;SDS011;62136;-35.664;-63.766;2024-02-26T08:34:37;3.85;;;1.45;;
59974;SDS011;62136;-35.664;-63.766;2024-02-26T08:37:04;2.47;;;1.90;;
59974;SDS011;62136;-35.664;-63.766;2024-02-26T08:39:32;3.38;;;1.42;;
59974;SDS011;62136;-35.664;-63.766;2024-02-26T08:41:59;1.92;;;1.20;;
59974;SDS011;62136;-35.664;-63.766;2024-02-26T08:44:26;1.88;;;1.25;;
59974;SDS011;62136;-35.664;-63.766;2024-02-26T08:46:53;3.67;;;1.60;;
59974;SDS011;62136;-35.664;-63.766;2024-02-26T08:49:20;3.20;;;1.40;;
59974;SDS011;62136;-35.664;-63.766;2024-02-26T08:51:49;1.38;;;1.27;;
59974;SDS011;62136;-35.664;-63.766;2024-02-26T08:54:16;1.67;;;1.13;;
59974;SDS011;62136;-35.664;-63.766;2024-02-26T08:56:43;2.65;;;1.60;;
59974;SDS011;62136;-35.664;-63.766;2024-02-26T08:59:09;2.15;;;1.50;;
59974;SDS011;62136;-35.664;-63.766;2024-02-26T09:01:36;3.38;;;1.98;;
59974;SDS011;62136;-35.664;-63.766;2024-02-26T09:04:03;3.30;;;1.30;;
59974;SDS011;62136;-35.664;-63.766;2024-02-26T09:06:30;2.30;;;1.20;;
59974;SDS011;62136;-35.664;-63.766;2024-02-26T09:08:57;2.72;;;1.60;;
59974;SDS011;62136;-35.664;-63.766;2024-02-26T09:11:24;2.28;;;1.30;;
59974;SDS011;62136;-35.664;-63.766;2024-02-26T09:13:51;2.40;;;1.50;;
59974;SDS011;62136;-35.664;-63.766;2024-02-26T09:16:18;2.65;;;1.15;;
59974;SDS011;62136;-35.664;-63.766;2024-02-26T09:18:45;1.92;;;1.30;;
59974;SDS011;62136;-35.664;-63.766;2024-02-26T09:21:13;3.70;;;1.77;;
59974;SDS011;62136;-35.664;-63.766;2024-02-26T09:23:40;2.15;;;1.42;;
59974;SDS011;62136;-35.664;-63.766;2024-02-26T09:26:07;3.65;;;1.55;;
59974;SDS011;62136;-35.664;-63.766;2024-02-26T09:28:34;3.05;;;1.40;;
59974;SDS011;62136;-35.664;-63.766;2024-02-26T09:31:04;3.72;;;1.35;;
59974;SDS011;62136;-35.664;-63.766;2024-02-26T09:33:34;2.83;;;1.60;;
59974;SDS011;62136;-35.664;-63.766;2024-02-26T09:36:01;2.83;;;1.40;;
59974;SDS011;62136;-35.664;-63.766;2024-02-26T09:38:30;2.67;;;1.50;;
59974;SDS011;62136;-35.664;-63.766;2024-02-26T09:41:02;2.05;;;1.30;;
59974;SDS011;62136;-35.664;-63.766;2024-02-26T09:43:34;2.20;;;1.10;;
59974;SDS011;62136;-35.664;-63.766;2024-02-26T09:46:02;2.13;;;1.65;;
59974;SDS011;62136;-35.664;-63.766;2024-02-26T09:48:29;3.08;;;1.48;;
59974;SDS011;62136;-35.664;-63.766;2024-02-26T09:50:58;2.03;;;1.23;;
59974;SDS011;62136;-35.664;-63.766;2024-02-26T09:53:26;2.60;;;1.65;;
59974;SDS011;62136;-35.664;-63.766;2024-02-26T09:55:57;4.07;;;1.70;;
59974;SDS011;62136;-35.664;-63.766;2024-02-26T09:58:25;3.33;;;1.30;;
59974;SDS011;62136;-35.664;-63.766;2024-02-26T10:00:56;3.65;;;1.40;;
59974;SDS011;62136;-35.664;-63.766;2024-02-26T10:03:33;3.75;;;1.60;;
59974;SDS011;62136;-35.664;-63.766;2024-02-26T10:06:06;3.50;;;1.52;;
59974;SDS011;62136;-35.664;-63.766;2024-02-26T10:08:34;2.00;;;1.30;;
59974;SDS011;62136;-35.664;-63.766;2024-02-26T10:11:04;3.53;;;1.50;;
59974;SDS011;62136;-35.664;-63.766;2024-02-26T10:13:36;3.75;;;1.88;;
59974;SDS011;62136;-35.664;-63.766;2024-02-26T10:16:04;2.95;;;1.63;;
59974;SDS011;62136;-35.664;-63.766;2024-02-26T10:18:47;2.45;;;1.73;;
59974;SDS011;62136;-35.664;-63.766;2024-02-26T10:21:21;3.78;;;1.67;;
59974;SDS011;62136;-35.664;-63.766;2024-02-26T10:23:49;5.70;;;1.80;;
59974;SDS011;62136;-35.664;-63.766;2024-02-26T10:26:17;3.58;;;1.80;;
59974;SDS011;62136;-35.664;-63.766;2024-02-26T10:28:45;3.60;;;1.92;;
59974;SDS011;62136;-35.664;-63.766;2024-02-26T10:31:13;6.53;;;2.25;;
59974;SDS011;62136;-35.664;-63.766;2024-02-26T10:33:41;3.22;;;1.73;;
59974;SDS011;62136;-35.664;-63.766;2024-02-26T10:36:10;5.15;;;1.77;;
59974;SDS011;62136;-35.664;-63.766;2024-02-26T10:38:36;5.55;;;1.98;;
59974;SDS011;62136;-35.664;-63.766;2024-02-26T10:41:04;5.03;;;1.80;;
59974;SDS011;62136;-35.664;-63.766;2024-02-26T10:43:38;4.10;;;1.77;;
59974;SDS011;62136;-35.664;-63.766;2024-02-26T10:46:05;5.25;;;2.00;;
59974;SDS011;62136;-35.664;-63.766;2024-02-26T10:48:33;4.80;;;1.70;;
59974;SDS011;62136;-35.664;-63.766;2024-02-26T10:51:00;6.50;;;2.47;;
59974;SDS011;62136;-35.664;-63.766;2024-02-26T10:53:29;6.03;;;2.15;;
59974;SDS011;62136;-35.664;-63.766;2024-02-26T10:56:03;6.03;;;2.25;;
59974;SDS011;62136;-35.664;-63.766;2024-02-26T10:58:31;9.23;;;2.30;;
59974;SDS011;62136;-35.664;-63.766;2024-02-26T11:00:59;7.25;;;2.72;;
59974;SDS011;62136;-35.664;-63.766;2024-02-26T11:03:27;5.40;;;1.90;;
59974;SDS011;62136;-35.664;-63.766;2024-02-26T11:05:57;5.57;;;2.05;;
59974;SDS011;62136;-35.664;-63.766;2024-02-26T11:08:26;7.50;;;2.60;;
59974;SDS011;62136;-35.664;-63.766;2024-02-26T11:10:54;51.08;;;6.38;;
59974;SDS011;62136;-35.664;-63.766;2024-02-26T11:13:23;28.35;;;3.95;;
59974;SDS011;62136;-35.664;-63.766;2024-02-26T11:15:53;7.50;;;2.25;;
59974;SDS011;62136;-35.664;-63.766;2024-02-26T11:18:23;15.40;;;3.38;;
59974;SDS011;62136;-35.664;-63.766;2024-02-26T11:20:52;12.93;;;3.30;;
59974;SDS011;62136;-35.664;-63.766;2024-02-26T11:23:23;13.55;;;3.60;;
59974;SDS011;62136;-35.664;-63.766;2024-02-26T11:25:53;9.50;;;3.38;;
59974;SDS011;62136;-35.664;-63.766;2024-02-26T11:28:22;10.60;;;3.17;;
59974;SDS011;62136;-35.664;-63.766;2024-02-26T11:30:53;8.80;;;2.60;;
59974;SDS011;62136;-35.664;-63.766;2024-02-26T11:33:20;7.82;;;2.97;;
59974;SDS011;62136;-35.664;-63.766;2024-02-26T11:35:49;9.48;;;2.75;;
59974;SDS011;62136;-35.664;-63.766;2024-02-26T11:38:23;7.43;;;2.75;;
59974;SDS011;62136;-35.664;-63.766;2024-02-26T11:40:53;7.18;;;2.63;;
59974;SDS011;62136;-35.664;-63.766;2024-02-26T11:43:44;6.43;;;2.53;;
59974;SDS011;62136;-35.664;-63.766;2024-02-26T11:48:56;6.60;;;2.58;;
59974;SDS011;62136;-35.664;-63.766;2024-02-26T11:51:43;8.65;;;2.65;;
59974;SDS011;62136;-35.664;-63.766;2024-02-26T11:54:37;7.93;;;2.87;;
59974;SDS011;62136;-35.664;-63.766;2024-02-26T11:57:28;8.55;;;2.53;;
59974;SDS011;62136;-35.664;-63.766;2024-02-26T12:00:12;3.40;;;2.10;;
59974;SDS011;62136;-35.664;-63.766;2024-02-26T12:02:45;8.98;;;2.60;;
59974;SDS011;62136;-35.664;-63.766;2024-02-26T12:05:14;4.25;;;2.40;;
59974;SDS011;62136;-35.664;-63.766;2024-02-26T12:10:30;6.80;;;2.33;;
59974;SDS011;62136;-35.664;-63.766;2024-02-26T12:13:09;4.47;;;2.13;;
59974;SDS011;62136;-35.664;-63.766;2024-02-26T12:15:42;5.28;;;2.20;;
59974;SDS011;62136;-35.664;-63.766;2024-02-26T12:18:11;4.32;;;2.33;;
59974;SDS011;62136;-35.664;-63.766;2024-02-26T12:20:43;5.78;;;2.40;;
59974;SDS011;62136;-35.664;-63.766;2024-02-26T12:23:14;4.35;;;2.03;;
59974;SDS011;62136;-35.664;-63.766;2024-02-26T12:25:43;5.72;;;2.50;;
59974;SDS011;62136;-35.664;-63.766;2024-02-26T12:28:19;6.15;;;2.53;;
59974;SDS011;62136;-35.664;-63.766;2024-02-26T12:30:47;8.10;;;2.20;;
59974;SDS011;62136;-35.664;-63.766;2024-02-26T12:33:15;4.63;;;2.00;;
59974;SDS011;62136;-35.664;-63.766;2024-02-26T12:35:43;6.18;;;2.50;;
59974;SDS011;62136;-35.664;-63.766;2024-02-26T12:38:16;5.32;;;2.40;;
59974;SDS011;62136;-35.664;-63.766;2024-02-26T12:40:44;4.40;;;2.17;;
59974;SDS011;62136;-35.664;-63.766;2024-02-26T12:43:11;4.28;;;2.17;;
59974;SDS011;62136;-35.664;-63.766;2024-02-26T12:45:41;5.75;;;2.40;;
59974;SDS011;62136;-35.664;-63.766;2024-02-26T12:50:49;7.32;;;3.00;;
59974;SDS011;62136;-35.664;-63.766;2024-02-26T12:53:16;6.43;;;3.03;;
59974;SDS011;62136;-35.664;-63.766;2024-02-26T12:55:44;9.40;;;3.45;;
59974;SDS011;62136;-35.664;-63.766;2024-02-26T12:58:12;8.80;;;2.70;;
59974;SDS011;62136;-35.664;-63.766;2024-02-26T13:00:40;10.30;;;2.85;;
59974;SDS011;62136;-35.664;-63.766;2024-02-26T13:03:08;8.35;;;3.78;;
59974;SDS011;62136;-35.664;-63.766;2024-02-26T13:05:36;10.55;;;3.58;;
59974;SDS011;62136;-35.664;-63.766;2024-02-26T13:08:05;9.38;;;3.25;;
59974;SDS011;62136;-35.664;-63.766;2024-02-26T13:10:33;12.32;;;3.33;;
59974;SDS011;62136;-35.664;-63.766;2024-02-26T13:13:01;9.88;;;4.43;;
59974;SDS011;62136;-35.664;-63.766;2024-02-26T13:15:30;11.10;;;3.90;;
59974;SDS011;62136;-35.664;-63.766;2024-02-26T13:17:58;9.77;;;3.35;;
59974;SDS011;62136;-35.664;-63.766;2024-02-26T13:20:41;7.95;;;3.65;;
59974;SDS011;62136;-35.664;-63.766;2024-02-26T13:23:11;10.18;;;3.60;;
59974;SDS011;62136;-35.664;-63.766;2024-02-26T13:25:41;9.98;;;3.70;;
59974;SDS011;62136;-35.664;-63.766;2024-02-26T13:28:09;7.50;;;3.40;;
59974;SDS011;62136;-35.664;-63.766;2024-02-26T13:30:50;12.35;;;3.15;;
59974;SDS011;62136;-35.664;-63.766;2024-02-26T13:33:19;9.40;;;3.42;;
59974;SDS011;62136;-35.664;-63.766;2024-02-26T13:35:46;6.68;;;2.80;;
59974;SDS011;62136;-35.664;-63.766;2024-02-26T13:38:14;8.40;;;3.08;;
59974;SDS011;62136;-35.664;-63.766;2024-02-26T13:40:42;8.32;;;2.55;;
59974;SDS011;62136;-35.664;-63.766;2024-02-26T13:43:10;9.57;;;2.90;;
59974;SDS011;62136;-35.664;-63.766;2024-02-26T13:45:38;8.07;;;3.42;;
59974;SDS011;62136;-35.664;-63.766;2024-02-26T13:48:07;8.02;;;2.97;;
59974;SDS011;62136;-35.664;-63.766;2024-02-26T13:50:54;7.63;;;2.65;;
59974;SDS011;62136;-35.664;-63.766;2024-02-26T13:53:28;6.97;;;2.70;;
59974;SDS011;62136;-35.664;-63.766;2024-02-26T13:55:55;5.95;;;2.67;;
59974;SDS011;62136;-35.664;-63.766;2024-02-26T13:58:24;5.57;;;2.67;;
59974;SDS011;62136;-35.664;-63.766;2024-02-26T14:00:52;5.07;;;2.83;;
59974;SDS011;62136;-35.664;-63.766;2024-02-26T14:03:20;5.85;;;2.40;;
59974;SDS011;62136;-35.664;-63.766;2024-02-26T14:05:47;5.53;;;2.55;;
59974;SDS011;62136;-35.664;-63.766;2024-02-26T14:08:15;6.63;;;3.15;;
59974;SDS011;62136;-35.664;-63.766;2024-02-26T14:10:42;6.75;;;2.70;;
59974;SDS011;62136;-35.664;-63.766;2024-02-26T14:13:10;5.25;;;2.67;;
59974;SDS011;62136;-35.664;-63.766;2024-02-26T14:15:45;8.82;;;3.47;;
59974;SDS011;62136;-35.664;-63.766;2024-02-26T14:18:12;6.38;;;2.75;;
59974;SDS011;62136;-35.664;-63.766;2024-02-26T14:20:39;7.40;;;2.50;;
59974;SDS011;62136;-35.664;-63.766;2024-02-26T14:23:06;7.57;;;2.65;;
59974;SDS011;62136;-35.664;-63.766;2024-02-26T14:25:34;7.82;;;2.40;;
59974;SDS011;62136;-35.664;-63.766;2024-02-26T14:28:03;4.70;;;2.10;;
59974;SDS011;62136;-35.664;-63.766;2024-02-26T14:30:32;5.68;;;2.17;;
59974;SDS011;62136;-35.664;-63.766;2024-02-26T14:33:03;4.65;;;2.13;;
59974;SDS011;62136;-35.664;-63.766;2024-02-26T14:35:30;6.90;;;2.10;;